Time;durP1;ratioP1;P1;durP2;ratioP2;P2;SDS_P1;SDS_P2;PMS_P1;PMS_P2;Temp;Humidity;BMP_temperature;BMP_pressure;BME280_temperature;BME280_humidity;BME280_pressure;Samples;Min_cycle;Max_cycle;Signal;HPM_P1;HPM_P2
2021/12/25 00:00:04;;;;;;;46.28;24.12;;;;;;;-0.06;69.37;99819.41;1641708;85;26112;-61
2021/12/25 00:02:34;;;;;;;44.27;22.82;;;;;;;-0.10;69.24;99823.17;1666625;84;25978;-61
2021/12/25 00:05:04;;;;;;;42.88;23.98;;;;;;;-0.13;69.45;99833.91;1697527;84;27548;-61
2021/12/25 00:07:33;;;;;;;39.73;21.75;;;;;;;-0.19;69.32;99839.13;1683697;84;25705;-60
2021/12/25 00:10:00;;;;;;;45.80;23.98;;;;;;;-0.27;69.40;99837.38;1649153;85;25776;-61
2021/12/25 00:12:30;;;;;;;43.90;23.98;;;;;;;-0.35;69.40;99843.13;1675312;84;26126;-60
2021/12/25 00:14:57;;;;;;;43.30;22.65;;;;;;;-0.37;69.55;99847.64;1666926;85;26375;-60
2021/12/25 00:17:26;;;;;;;39.67;23.18;;;;;;;-0.46;69.66;99846.84;1678157;84;27541;-60
2021/12/25 00:19:54;;;;;;;39.88;22.00;;;;;;;-0.55;69.59;99844.73;1672008;84;25821;-60
2021/12/25 00:22:22;;;;;;;41.15;23.32;;;;;;;-0.57;69.78;99850.12;1660918;84;25748;-61
2021/12/25 00:24:49;;;;;;;43.08;22.65;;;;;;;-0.60;69.95;99834.91;1648888;85;26768;-61
2021/12/25 00:35:01;;;;;;;44.50;23.25;;;;;;;-0.56;70.06;99845.22;1639010;86;25684;-61
2021/12/25 00:37:28;;;;;;;46.92;23.92;;;;;;;-0.54;70.17;99843.80;1680350;84;26761;-62
2021/12/25 00:39:56;;;;;;;41.08;23.15;;;;;;;-0.54;70.28;99864.45;1645608;86;25853;-61
2021/12/25 00:42:23;;;;;;;41.33;23.40;;;;;;;-0.56;70.41;99859.75;1636942;86;27520;-60
2021/12/25 00:44:50;;;;;;;33.50;20.60;;;;;;;-0.60;70.24;99863.49;1626593;85;25853;-61
2021/12/25 00:47:19;;;;;;;41.37;23.10;;;;;;;-0.58;70.37;99859.46;1667977;84;25818;-61
2021/12/25 00:49:46;;;;;;;38.70;21.52;;;;;;;-0.59;70.22;99857.75;1650044;85;29834;-60
2021/12/25 00:52:13;;;;;;;35.15;19.92;;;;;;;-0.61;70.14;99864.42;1632707;86;25895;-60
2021/12/25 00:54:40;;;;;;;40.17;21.95;;;;;;;-0.64;70.42;99864.63;1656040;85;27570;-60
2021/12/25 00:57:09;;;;;;;42.88;23.32;;;;;;;-0.75;70.02;99869.16;1671118;85;25843;-62
2021/12/25 00:59:36;;;;;;;38.08;22.70;;;;;;;-0.80;70.10;99868.58;1669484;84;25984;-61
2021/12/25 01:02:04;;;;;;;43.68;22.05;;;;;;;-0.81;70.28;99862.91;1628223;86;26170;-60
2021/12/25 01:04:33;;;;;;;40.17;23.12;;;;;;;-0.87;70.34;99854.86;1660085;86;27216;-60
2021/12/25 01:07:00;;;;;;;42.88;22.10;;;;;;;-0.89;70.40;99865.14;1662372;86;27480;-61
2021/12/25 01:09:30;;;;;;;36.03;20.05;;;;;;;-0.91;70.29;99860.40;1661450;85;25833;-61
2021/12/25 01:11:58;;;;;;;38.80;20.62;;;;;;;-0.93;70.42;99860.50;1675226;84;25714;-61
2021/12/25 01:22:32;;;;;;;40.03;21.45;;;;;;;-1.06;70.51;99849.77;1662517;84;25863;-61
2021/12/25 01:30:01;;;;;;;36.50;20.55;;;;;;;-0.98;70.82;99853.28;1633614;84;25875;-61
2021/12/25 01:33:02;;;;;;;34.65;19.98;;;;;;;-0.92;71.00;99854.28;1657756;84;27519;-60
2021/12/25 01:41:29;;;;;;;41.35;21.48;;;;;;;-0.81;70.52;99853.67;1658507;86;26141;-61
2021/12/25 01:49:28;;;;;;;34.95;20.20;;;;;;;-0.87;70.71;99855.34;1673116;84;25960;-61
2021/12/25 01:51:55;;;;;;;42.80;21.57;;;;;;;-0.86;70.87;99851.77;1697134;84;25510;-61
2021/12/25 01:54:22;;;;;;;36.40;21.23;;;;;;;-0.83;70.90;99858.18;1672569;84;26107;-61
2021/12/25 01:56:48;;;;;;;41.45;21.07;;;;;;;-0.81;70.92;99853.67;1628694;86;25810;-61
2021/12/25 01:59:17;;;;;;;37.08;20.72;;;;;;;-0.85;70.65;99858.28;1669479;84;27510;-60
2021/12/25 02:01:44;;;;;;;34.85;20.70;;;;;;;-0.88;70.26;99860.24;1671424;84;25749;-60
2021/12/25 02:04:11;;;;;;;37.17;21.70;;;;;;;-0.90;70.36;99872.22;1677423;83;25900;-60
2021/12/25 02:06:39;;;;;;;31.17;19.60;;;;;;;-0.90;70.46;99874.86;1676854;85;26497;-61
2021/12/25 02:09:06;;;;;;;31.90;19.35;;;;;;;-0.92;70.57;99876.73;1676844;84;25773;-61
2021/12/25 02:11:34;;;;;;;37.58;20.37;;;;;;;-0.89;70.72;99875.70;1678920;83;27477;-61
2021/12/25 02:14:01;;;;;;;35.50;19.23;;;;;;;-0.89;70.47;99870.42;1677510;84;25821;-61
2021/12/25 02:16:41;;;;;;;37.58;20.45;;;;;;;-0.95;70.10;99865.88;1635610;85;26750;-60
2021/12/25 02:19:07;;;;;;;38.38;20.37;;;;;;;-0.98;70.25;99874.40;1641890;85;26082;-61
2021/12/25 02:21:37;;;;;;;41.58;21.68;;;;;;;-0.97;70.45;99881.39;1644443;85;25999;-61
2021/12/25 02:24:08;;;;;;;38.92;21.93;;;;;;;-0.96;70.50;99880.45;1643318;85;27571;-60
2021/12/25 02:26:38;;;;;;;34.15;20.48;;;;;;;-0.95;70.75;99874.24;1644411;86;25915;-61
2021/12/25 02:29:06;;;;;;;39.75;20.95;;;;;;;-0.93;70.94;99873.70;1638614;86;25769;-60
2021/12/25 02:31:33;;;;;;;34.58;20.25;;;;;;;-0.88;70.91;99867.68;1637530;85;26098;-61
2021/12/25 02:34:00;;;;;;;38.28;20.12;;;;;;;-0.89;70.62;99865.14;1632856;86;25921;-61
2021/12/25 02:36:27;;;;;;;37.20;21.45;;;;;;;-0.92;70.52;99863.52;1620834;87;28166;-60
2021/12/25 02:38:54;;;;;;;33.80;19.73;;;;;;;-0.97;70.48;99862.45;1643822;85;25863;-61
2021/12/25 02:41:22;;;;;;;32.83;18.90;;;;;;;-1.01;70.25;99867.51;1651343;85;25761;-61
2021/12/25 02:43:49;;;;;;;30.88;18.17;;;;;;;-1.08;70.17;99858.23;1677375;84;26125;-61
2021/12/25 02:46:18;;;;;;;32.53;18.55;;;;;;;-1.11;70.25;99857.94;1676868;84;26191;-60
2021/12/25 02:48:45;;;;;;;39.42;21.40;;;;;;;-1.13;70.43;99859.80;1680183;84;27543;-61
2021/12/25 02:51:13;;;;;;;37.23;21.48;;;;;;;-1.15;70.51;99866.11;1675578;85;25913;-60
2021/12/25 02:53:41;;;;;;;40.98;21.57;;;;;;;-1.15;70.62;99858.19;1664061;84;25736;-60
2021/12/25 02:56:08;;;;;;;40.78;20.40;;;;;;;-1.14;70.51;99860.73;1669345;84;26173;-61
2021/12/25 02:58:37;;;;;;;38.78;20.82;;;;;;;-1.15;70.44;99875.34;1669133;84;25897;-59
2021/12/25 03:01:12;;;;;;;36.53;21.02;;;;;;;-1.18;70.35;99867.58;1649470;85;27486;-60
2021/12/25 03:03:42;;;;;;;36.85;20.05;;;;;;;-1.18;70.43;99874.18;1688567;84;25958;-60
2021/12/25 03:06:11;;;;;;;33.95;19.15;;;;;;;-1.17;70.69;99881.16;1673760;85;25847;-60
2021/12/25 03:08:39;;;;;;;39.23;19.85;;;;;;;-1.17;70.65;99872.80;1685637;84;26731;-60
2021/12/25 03:11:08;;;;;;;33.33;18.25;;;;;;;-1.14;70.73;99870.45;1659237;84;25845;-60
2021/12/25 03:13:43;;;;;;;28.52;17.73;;;;;;;-1.11;70.76;99874.22;1670676;84;27469;-61
2021/12/25 03:16:07;;;;;;;37.40;17.55;;;;;;;-1.13;70.79;99882.72;1683790;84;25932;-60
2021/12/25 03:18:48;;;;;;;35.45;19.32;;;;;;;-1.29;70.49;99887.96;1678618;84;26537;-61
2021/12/25 03:21:17;;;;;;;34.25;18.82;;;;;;;-1.42;71.59;99904.44;1635889;86;26118;-59
2021/12/25 03:23:52;;;;;;;31.52;19.00;;;;;;;-1.51;71.77;99911.99;1687634;84;25822;-61
2021/12/25 03:26:18;;;;;;;;;;;;;;;-1.53;71.73;99907.26;1687130;84;27458;-60
2021/12/25 03:28:47;;;;;;;35.00;19.87;;;;;;;-1.57;71.71;99906.56;1677044;83;25814;-61
2021/12/25 03:31:19;;;;;;;35.38;20.02;;;;;;;-1.55;71.85;99920.53;1665947;84;25562;-60
2021/12/25 03:33:52;;;;;;;37.00;20.88;;;;;;;-1.50;72.06;99921.13;1657314;85;26098;-61
2021/12/25 03:36:20;;;;;;;36.85;19.05;;;;;;;-1.42;72.45;99923.38;1659810;85;25695;-61
2021/12/25 03:38:47;;;;;;;36.28;19.73;;;;;;;-1.41;72.22;99925.09;1688845;84;27494;-60
2021/12/25 03:41:17;;;;;;;35.20;20.80;;;;;;;-1.42;71.96;99922.06;1669344;84;25828;-60
2021/12/25 03:43:46;;;;;;;36.38;19.65;;;;;;;-1.42;71.97;99926.86;1674550;84;25966;-61
2021/12/25 03:46:17;;;;;;;43.02;22.60;;;;;;;-1.38;72.00;99927.55;1690224;84;26048;-61
2021/12/25 03:59:41;;;;;;;35.03;20.12;;;;;;;-1.28;72.17;99952.52;1657250;84;26125;-61
2021/12/25 04:02:17;;;;;;;36.08;20.88;;;;;;;-1.32;72.14;99944.40;1620618;87;25826;-60
2021/12/25 04:04:44;;;;;;;32.55;18.00;;;;;;;-1.36;71.87;99945.96;1653381;86;29594;-60
2021/12/25 04:07:17;;;;;;;40.95;20.30;;;;;;;-1.33;72.22;99956.33;1654438;86;25772;-61
2021/12/25 04:09:38;;;;;;;38.65;20.10;;;;;;;-1.28;72.36;99949.88;1650088;85;25898;-60
2021/12/25 04:12:13;;;;;;;35.90;19.40;;;;;;;-1.22;72.49;99954.47;1661270;85;27131;-61
2021/12/25 04:14:44;;;;;;;33.13;19.45;;;;;;;-1.17;72.52;99963.86;1657841;85;25846;-60
2021/12/25 04:17:11;;;;;;;35.55;19.37;;;;;;;-1.15;72.45;99977.80;1646461;84;27566;-61
2021/12/25 04:19:39;;;;;;;37.15;20.37;;;;;;;-1.19;72.01;99977.59;1631297;86;25733;-60
2021/12/25 04:22:17;;;;;;;32.83;19.50;;;;;;;-1.21;71.95;99977.30;1635360;86;37229;-60
2021/12/25 04:24:42;;;;;;;34.27;18.05;;;;;;;-1.21;72.11;99979.45;1620252;87;26131;-60
2021/12/25 04:27:12;;;;;;;39.75;19.15;;;;;;;-1.21;72.16;99993.13;1636872;87;25862;-61
2021/12/25 04:30:30;;;;;;;32.20;18.77;;;;;;;-1.26;72.04;99990.25;1639671;87;28245;-60
2021/12/25 04:49:29;;;;;;;37.45;19.02;;;;;;;-1.26;72.77;100024.55;1622624;86;25797;-61
2021/12/25 05:05:17;;;;;;;30.48;17.75;;;;;;;-1.36;72.38;100032.55;1657209;85;26107;-61
2021/12/25 05:07:58;;;;;;;30.55;18.12;;;;;;;-1.40;72.44;100034.98;1660622;86;25805;-61
2021/12/25 05:10:26;;;;;;;30.97;17.17;;;;;;;-1.39;72.80;100039.77;1661281;85;27408;-60
2021/12/25 05:12:53;;;;;;;29.10;16.52;;;;;;;-1.45;73.22;100039.61;1623845;85;26218;-60
2021/12/25 05:15:20;;;;;;;32.03;18.60;;;;;;;-1.51;73.67;100043.89;1643710;86;25745;-61
2021/12/25 05:17:48;;;;;;;30.12;15.78;;;;;;;-1.55;73.45;100048.91;1643387;86;26188;-61
2021/12/25 05:20:15;;;;;;;32.48;17.98;;;;;;;-1.53;73.63;100045.30;1644809;85;25965;-61
2021/12/25 05:22:42;;;;;;;32.10;17.37;;;;;;;-1.48;73.52;100059.58;1648464;86;27507;-61
2021/12/25 05:25:11;;;;;;;30.37;19.00;;;;;;;-1.45;73.43;100065.55;1657844;85;25697;-60
2021/12/25 05:27:41;;;;;;;29.45;16.90;;;;;;;-1.42;73.37;100067.17;1653516;86;25942;-61
2021/12/25 05:30:10;;;;;;;34.67;18.23;;;;;;;-1.42;73.49;100069.81;1656512;86;26101;-61
2021/12/25 05:32:39;;;;;;;33.20;18.37;;;;;;;-1.48;73.08;100066.17;1659347;84;25711;-61
2021/12/25 05:35:24;;;;;;;30.97;18.92;;;;;;;-1.51;73.02;100064.52;1654248;86;27868;-60
2021/12/25 05:37:59;;;;;;;30.00;17.45;;;;;;;-1.52;73.05;100056.69;1656639;86;25873;-60
2021/12/25 05:40:26;;;;;;;32.80;18.07;;;;;;;-1.54;72.86;100054.58;1660193;85;25749;-60
2021/12/25 05:42:58;;;;;;;30.90;16.35;;;;;;;-1.53;73.40;100069.03;1674003;84;26135;-60
2021/12/25 05:45:28;;;;;;;28.07;16.90;;;;;;;-1.48;73.64;100077.56;1656483;85;25804;-60
2021/12/25 05:48:01;;;;;;;26.95;16.48;;;;;;;-1.42;73.79;100077.25;1662810;84;27532;-60
2021/12/25 05:50:42;;;;;;;26.52;16.37;;;;;;;-1.35;73.81;100076.48;1620994;84;26039;-60
2021/12/25 05:53:26;;;;;;;32.70;18.42;;;;;;;-1.34;73.51;100070.28;1640720;84;25880;-61
2021/12/25 05:56:11;;;;;;;30.08;16.67;;;;;;;-1.30;73.49;100080.20;1678616;83;26827;-62
2021/12/25 05:58:57;;;;;;;34.08;17.52;;;;;;;-1.30;73.21;100092.08;1663488;83;25960;-61
2021/12/25 06:01:26;;;;;;;25.52;16.70;;;;;;;-1.31;73.12;100085.09;1639451;85;27520;-61
2021/12/25 06:03:53;;;;;;;30.50;16.00;;;;;;;-1.31;72.96;100094.33;1642066;86;25729;-61
2021/12/25 06:06:21;;;;;;;26.82;14.47;;;;;;;-1.30;72.89;100100.00;1644509;86;25847;-61
2021/12/25 06:08:47;;;;;;;25.40;14.60;;;;;;;-1.27;73.02;100103.34;1641563;87;26182;-61
2021/12/25 06:11:18;;;;;;;27.05;14.50;;;;;;;-1.23;73.02;100100.55;1643303;84;25551;-61
2021/12/25 06:13:57;;;;;;;22.30;13.83;;;;;;;-1.23;72.80;100098.76;1663722;84;28780;-61
2021/12/25 06:16:16;;;;;;;25.30;14.55;;;;;;;-1.16;72.92;100099.31;1648792;85;25808;-61
2021/12/25 06:18:50;;;;;;;24.82;14.15;;;;;;;-1.13;72.82;100105.77;1662843;84;25803;-61
2021/12/25 06:21:27;;;;;;;23.75;13.90;;;;;;;-1.11;72.78;100103.88;1663091;84;26210;-61
2021/12/25 06:23:56;;;;;;;28.17;15.18;;;;;;;-1.03;72.97;100104.33;1617715;85;26007;-61
2021/12/25 06:26:25;;;;;;;22.05;12.68;;;;;;;-0.97;72.87;100105.81;1649063;85;27517;-62
2021/12/25 06:29:14;;;;;;;20.10;12.50;;;;;;;-0.95;72.81;100106.14;1655080;85;26037;-61
2021/12/25 06:31:42;;;;;;;23.00;12.93;;;;;;;-0.93;72.91;100102.55;1650397;85;25707;-61
2021/12/25 06:34:22;;;;;;;25.72;14.68;;;;;;;-0.87;73.17;100118.09;1656016;85;26765;-61
2021/12/25 06:37:08;;;;;;;30.37;16.42;;;;;;;-0.77;73.33;100118.45;1653419;85;25814;-61
2021/12/25 06:39:43;;;;;;;25.43;15.48;;;;;;;-0.71;73.25;100110.20;1641225;85;27567;-61
2021/12/25 06:42:15;;;;;;;28.87;16.07;;;;;;;-0.63;73.33;100115.97;1655593;85;25745;-62
2021/12/25 06:44:43;;;;;;;30.37;17.57;;;;;;;-0.61;73.00;100110.59;1643896;85;25876;-61
2021/12/25 06:47:12;;;;;;;25.88;14.07;;;;;;;-0.64;73.28;100116.41;1654319;85;26249;-61
2021/12/25 06:49:40;;;;;;;19.60;11.83;;;;;;;-0.59;73.45;100115.33;1646899;86;25765;-61
2021/12/25 06:52:19;;;;;;;19.82;11.25;;;;;;;-0.55;73.93;100120.38;1640543;86;27544;-61
2021/12/25 06:54:51;;;;;;;20.85;11.70;;;;;;;-0.50;74.10;100132.02;1636326;86;26199;-61
2021/12/25 06:57:32;;;;;;;20.37;12.98;;;;;;;-0.46;74.39;100124.78;1633270;85;25315;-61
2021/12/25 07:00:01;;;;;;;22.25;12.70;;;;;;;-0.41;74.48;100114.81;1640446;86;26549;-61
2021/12/25 07:02:28;;;;;;;16.77;10.93;;;;;;;-0.38;74.67;100118.63;1639010;86;25802;-61
2021/12/25 07:05:14;;;;;;;29.30;16.07;;;;;;;-0.34;74.74;100124.98;1639140;86;27680;-62
2021/12/25 07:08:01;;;;;;;23.07;14.03;;;;;;;-0.24;74.76;100127.97;1655238;85;25829;-60
2021/12/25 07:10:30;;;;;;;15.38;10.28;;;;;;;-0.10;74.72;100131.67;1640697;86;25761;-60
2021/12/25 07:13:00;;;;;;;19.17;10.23;;;;;;;0.04;74.85;100137.53;1647217;85;26158;-60
2021/12/25 07:15:38;;;;;;;15.40;9.08;;;;;;;0.18;75.09;100128.34;1643353;86;25859;-60
2021/12/25 07:18:10;;;;;;;15.23;10.25;;;;;;;0.30;75.09;100135.61;1628770;86;28214;-59
2021/12/25 07:20:39;;;;;;;16.57;10.28;;;;;;;0.44;75.32;100128.67;1636424;85;25969;-60
2021/12/25 07:23:07;;;;;;;17.52;11.25;;;;;;;0.64;75.50;100137.27;1655717;85;25808;-60
2021/12/25 07:25:36;;;;;;;22.42;12.63;;;;;;;0.78;75.84;100144.80;1663644;85;26125;-59
2021/12/25 07:28:08;;;;;;;21.48;11.90;;;;;;;0.90;76.00;100147.66;1652446;85;25727;-60
2021/12/25 07:30:35;;;;;;;19.48;11.68;;;;;;;1.02;75.98;100148.77;1659889;85;27516;-60
2021/12/25 07:33:04;;;;;;;16.32;11.48;;;;;;;1.18;76.90;100161.94;1661464;84;25820;-60
2021/12/25 07:35:31;;;;;;;21.07;12.30;;;;;;;1.37;77.61;100163.03;1660945;85;25792;-60
2021/12/25 07:37:58;;;;;;;17.65;9.20;;;;;;;1.54;77.41;100172.59;1661796;84;26113;-60
2021/12/25 07:40:25;;;;;;;38.35;19.85;;;;;;;1.69;78.51;100170.36;1655792;85;25833;-60
2021/12/25 07:42:54;;;;;;;16.82;11.30;;;;;;;1.90;77.95;100175.75;1647285;85;27493;-62
2021/12/25 07:45:23;;;;;;;15.48;8.05;;;;;;;2.09;79.81;100174.99;1645361;86;25795;-61
2021/12/25 07:48:01;;;;;;;17.75;10.00;;;;;;;2.39;79.74;100166.02;1640766;85;25701;-60
2021/12/25 07:50:31;;;;;;;31.27;18.73;;;;;;;2.55;78.36;100174.34;1650024;85;26798;-60
2021/12/25 07:52:59;;;;;;;30.90;17.80;;;;;;;2.64;77.50;100177.72;1646913;86;25830;-61
2021/12/25 07:55:30;;;;;;;28.75;17.45;;;;;;;2.70;76.93;100180.42;1637676;86;27564;-60
2021/12/25 07:57:58;;;;;;;27.98;16.12;;;;;;;2.73;76.53;100186.42;1636135;86;26112;-60
2021/12/25 08:00:26;;;;;;;36.15;17.20;;;;;;;2.74;76.24;100192.57;1641560;85;25766;-61
2021/12/25 08:02:53;;;;;;;27.07;14.87;;;;;;;2.78;76.21;100186.95;1658487;85;26129;-61
2021/12/25 08:05:21;;;;;;;27.60;15.50;;;;;;;2.80;76.08;100181.53;1646450;85;25785;-60
2021/12/25 08:07:48;;;;;;;31.97;16.65;;;;;;;2.85;75.97;100187.88;1651990;85;28148;-60
2021/12/25 08:10:20;;;;;;;34.03;17.73;;;;;;;2.90;75.92;100195.08;1649490;85;25876;-60
2021/12/25 08:12:52;;;;;;;33.45;19.02;;;;;;;2.96;75.89;100184.88;1661506;85;25711;-61
2021/12/25 08:15:26;;;;;;;35.83;20.15;;;;;;;3.01;75.67;100188.56;1643221;86;26161;-60
2021/12/25 08:17:55;;;;;;;30.52;17.45;;;;;;;3.02;75.66;100204.88;1644206;84;25807;-60
2021/12/25 08:20:34;;;;;;;30.95;16.95;;;;;;;3.00;75.35;100220.10;1665960;84;27553;-61
2021/12/25 08:23:19;;;;;;;15.70;9.83;;;;;;;2.97;75.08;100237.56;1677895;84;25792;-60
2021/12/25 08:26:07;;;;;;;15.85;9.15;;;;;;;2.90;76.13;100241.09;1664322;84;25811;-61
2021/12/25 08:28:54;;;;;;;15.43;8.60;;;;;;;3.01;77.43;100241.70;1646475;85;26120;-61
2021/12/25 08:31:41;;;;;;;12.18;7.05;;;;;;;3.17;77.92;100260.66;1626579;87;25679;-61
2021/12/25 08:34:26;;;;;;;11.08;6.85;;;;;;;3.38;77.35;100273.84;1622409;87;27552;-62
2021/12/25 08:37:05;;;;;;;14.70;8.30;;;;;;;3.55;76.69;100285.14;1665371;85;26510;-61
2021/12/25 08:39:32;;;;;;;13.45;7.28;;;;;;;3.71;75.94;100283.64;1648516;86;25749;-62
2021/12/25 08:42:03;;;;;;;11.28;7.15;;;;;;;3.77;75.49;100279.22;1647235;84;26117;-61
2021/12/25 08:44:40;;;;;;;13.93;8.30;;;;;;;3.84;75.26;100289.85;1639531;84;25816;-61
2021/12/25 08:47:13;;;;;;;13.83;8.20;;;;;;;3.90;75.10;100303.19;1636818;85;27504;-61
2021/12/25 08:49:41;;;;;;;13.48;7.28;;;;;;;3.95;74.68;100305.08;1643018;85;25795;-61
2021/12/25 08:52:13;;;;;;;14.95;8.60;;;;;;;4.02;74.58;100317.00;1634005;85;25833;-61
2021/12/25 08:54:42;;;;;;;13.00;7.62;;;;;;;4.07;74.36;100312.69;1634654;85;26098;-61
2021/12/25 08:57:10;;;;;;;15.35;9.33;;;;;;;4.14;73.70;100321.11;1659692;85;25915;-61
2021/12/25 08:59:39;;;;;;;14.33;8.43;;;;;;;4.15;73.35;100318.83;1653444;85;28147;-61
2021/12/25 09:02:11;;;;;;;15.80;9.83;;;;;;;4.15;73.19;100329.48;1627203;86;25804;-61
2021/12/25 09:04:41;;;;;;;17.67;10.32;;;;;;;4.15;72.80;100322.33;1653185;84;25978;-61
2021/12/25 09:07:08;;;;;;;16.15;9.78;;;;;;;4.17;72.54;100331.56;1635528;85;26097;-61
2021/12/25 09:09:36;;;;;;;15.88;8.85;;;;;;;4.20;72.34;100322.88;1626793;85;25959;-61
2021/12/25 09:12:05;;;;;;;16.77;10.15;;;;;;;4.22;72.29;100324.09;1657773;85;27564;-62
2021/12/25 09:14:34;;;;;;;18.85;9.48;;;;;;;4.21;71.81;100328.55;1647863;85;25948;-61
2021/12/25 09:17:01;;;;;;;18.73;9.75;;;;;;;4.19;72.08;100331.83;1632336;85;25987;-61
2021/12/25 09:19:28;;;;;;;18.57;10.10;;;;;;;4.19;72.13;100331.83;1639418;85;26121;-62
2021/12/25 09:21:55;;;;;;;17.50;10.10;;;;;;;4.21;71.82;100317.90;1599107;87;25718;-62
2021/12/25 09:24:21;;;;;;;19.48;10.35;;;;;;;4.23;71.82;100322.65;1630822;87;27527;-60
2021/12/25 09:26:48;;;;;;;18.80;10.10;;;;;;;4.25;71.75;100335.87;1629313;85;25991;-62
2021/12/25 09:29:15;;;;;;;17.77;9.85;;;;;;;4.25;71.96;100342.53;1676193;84;25756;-61
2021/12/25 09:31:42;;;;;;;16.80;9.83;;;;;;;4.25;71.69;100340.33;1639761;85;26115;-62
2021/12/25 09:34:10;;;;;;;16.40;9.20;;;;;;;4.24;71.59;100359.47;1624802;87;25907;-61
2021/12/25 09:36:38;;;;;;;21.12;11.25;;;;;;;4.25;71.46;100347.86;1625067;86;27456;-61
2021/12/25 09:39:06;;;;;;;21.77;10.43;;;;;;;4.26;71.50;100358.86;1637587;85;25701;-61
2021/12/25 09:41:34;;;;;;;18.45;10.60;;;;;;;4.22;71.42;100370.20;1629105;87;27079;-61
2021/12/25 09:44:04;;;;;;;19.50;11.38;;;;;;;4.24;71.47;100372.78;1612152;87;26831;-61
2021/12/25 09:46:31;;;;;;;21.45;10.75;;;;;;;4.23;71.26;100363.92;1641569;87;25953;-61
2021/12/25 09:48:59;;;;;;;21.82;11.65;;;;;;;4.25;71.37;100370.49;1632069;86;28240;-61
2021/12/25 09:51:26;;;;;;;18.32;10.68;;;;;;;4.24;71.26;100386.09;1619603;86;25863;-62
2021/12/25 09:54:01;;;;;;;18.40;10.13;;;;;;;4.26;71.20;100378.83;1643236;86;26033;-61
2021/12/25 09:56:30;;;;;;;15.83;9.70;;;;;;;4.29;71.09;100377.30;1626339;87;26768;-62
2021/12/25 09:58:57;;;;;;;14.63;8.93;;;;;;;4.32;70.17;100390.88;1632054;87;25790;-62
2021/12/25 10:01:46;;;;;;;12.68;7.12;;;;;;;4.36;70.08;100391.05;1633148;86;28353;-61
2021/12/25 10:04:40;;;;;;;10.82;6.05;;;;;;;4.36;69.15;100384.39;1652967;85;25862;-61
2021/12/25 10:07:18;;;;;;;14.85;5.78;;;;;;;4.41;69.35;100386.73;1631940;87;25955;-62
2021/12/25 10:09:58;;;;;;;15.65;7.65;;;;;;;4.46;68.80;100393.92;1633211;86;26115;-61
2021/12/25 10:12:41;;;;;;;9.83;5.42;;;;;;;4.51;68.52;100385.14;1646241;86;26526;-62
2021/12/25 10:15:15;;;;;;;10.60;5.60;;;;;;;4.59;68.54;100397.45;1610256;87;27610;-61
2021/12/25 10:17:55;;;;;;;11.75;6.60;;;;;;;4.71;68.51;100410.39;1681916;83;25988;-62
2021/12/25 10:20:27;;;;;;;9.25;5.70;;;;;;;4.79;67.12;100399.20;1671500;84;25848;-62
2021/12/25 10:23:10;;;;;;;11.35;6.00;;;;;;;4.85;66.76;100406.76;1667014;83;26994;-62
2021/12/25 10:25:53;;;;;;;9.75;5.92;;;;;;;4.95;67.07;100397.62;1669751;85;25808;-62
2021/12/25 10:28:28;;;;;;;9.28;5.60;;;;;;;5.05;66.85;100401.83;1651460;85;27525;-62
2021/12/25 10:31:00;;;;;;;14.58;6.42;;;;;;;5.13;66.75;100406.13;1664605;85;25748;-61
2021/12/25 10:33:35;;;;;;;9.45;5.25;;;;;;;5.16;66.57;100416.09;1660549;85;25835;-62
2021/12/25 10:36:09;;;;;;;7.28;4.80;;;;;;;5.20;66.04;100417.22;1661002;85;26580;-62
2021/12/25 10:38:38;;;;;;;8.25;5.30;;;;;;;5.20;65.94;100399.88;1654469;84;25796;-63
2021/12/25 10:41:15;;;;;;;7.97;4.80;;;;;;;5.23;65.79;100402.31;1634295;86;27496;-63
2021/12/25 10:43:43;;;;;;;10.60;5.83;;;;;;;5.22;65.87;100396.14;1641420;85;25844;-61
2021/12/25 10:46:10;;;;;;;9.75;6.03;;;;;;;5.22;65.80;100415.27;1650643;85;25788;-61
2021/12/25 10:48:39;;;;;;;9.95;5.35;;;;;;;5.27;65.85;100409.14;1660093;84;26808;-62
2021/12/25 10:51:23;;;;;;;5.33;3.87;;;;;;;5.32;65.32;100406.52;1657879;84;25890;-62
2021/12/25 10:53:55;;;;;;;8.10;5.10;;;;;;;5.38;64.99;100405.69;1632941;86;27560;-61
2021/12/25 10:56:26;;;;;;;9.30;4.97;;;;;;;5.43;64.83;100394.19;1636577;85;25847;-62
2021/12/25 10:58:58;;;;;;;10.80;6.37;;;;;;;5.55;64.08;100394.62;1662908;85;25831;-63
2021/12/25 11:01:25;;;;;;;7.08;4.60;;;;;;;5.67;64.15;100396.03;1663085;84;26133;-62
2021/12/25 11:03:52;;;;;;;7.17;4.55;;;;;;;6.11;63.22;100388.70;1683804;84;25547;-61
2021/12/25 11:06:19;;;;;;;6.90;3.85;;;;;;;6.53;63.90;100390.02;1660334;84;27482;-61
2021/12/25 11:08:48;;;;;;;6.50;4.42;;;;;;;6.71;63.17;100393.93;1655310;85;25851;-62
2021/12/25 11:11:19;;;;;;;8.43;5.05;;;;;;;6.76;62.61;100398.92;1651645;85;25836;-62
2021/12/25 11:13:55;;;;;;;8.53;4.10;;;;;;;6.89;62.36;100402.81;1657071;85;26759;-60
2021/12/25 11:16:34;;;;;;;9.08;5.40;;;;;;;7.12;62.10;100398.30;1658741;86;25736;-62
2021/12/25 11:19:17;;;;;;;8.70;5.03;;;;;;;7.28;61.10;100395.72;1659080;86;28179;-62
2021/12/25 11:21:50;;;;;;;9.90;4.58;;;;;;;7.36;61.01;100401.30;1657913;85;25946;-62
2021/12/25 11:24:21;;;;;;;8.10;5.55;;;;;;;7.36;60.47;100413.34;1639821;85;25787;-63
2021/12/25 11:26:56;;;;;;;8.33;5.72;;;;;;;7.36;59.51;100412.00;1594841;89;26129;-63
2021/12/25 11:29:27;;;;;;;7.92;5.22;;;;;;;7.28;59.95;100418.47;1617366;86;25785;-63
2021/12/25 11:31:59;;;;;;;9.75;6.20;;;;;;;7.22;58.96;100409.61;1654241;85;27508;-63
2021/12/25 11:34:30;;;;;;;9.48;6.37;;;;;;;7.19;59.44;100410.20;1660423;85;25851;-62
2021/12/25 11:37:00;;;;;;;8.18;5.45;;;;;;;7.20;59.39;100404.36;1630163;87;25768;-62
2021/12/25 11:39:29;;;;;;;10.13;5.92;;;;;;;7.15;59.09;100403.39;1662495;85;26077;-62
2021/12/25 11:42:04;;;;;;;8.63;5.25;;;;;;;7.06;59.09;100404.13;1654194;86;25783;-62
2021/12/25 11:44:42;;;;;;;12.70;5.97;;;;;;;6.99;58.99;100393.55;1660079;85;28183;-62
2021/12/25 11:47:30;;;;;;;8.50;5.22;;;;;;;6.89;58.58;100406.82;1669190;85;26009;-63
2021/12/25 11:50:02;;;;;;;7.00;5.12;;;;;;;6.70;58.81;100414.95;1653523;85;26381;-62
2021/12/25 11:52:39;;;;;;;10.25;5.28;;;;;;;6.56;58.63;100422.70;1661278;85;26145;-62
2021/12/25 11:55:32;;;;;;;10.65;5.87;;;;;;;6.45;59.29;100424.01;1663987;84;26843;-62
2021/12/25 11:58:16;;;;;;;10.25;5.80;;;;;;;6.46;59.72;100437.74;1629463;87;27534;-62
2021/12/25 12:00:50;;;;;;;7.83;5.28;;;;;;;6.46;59.38;100436.87;1638469;87;27515;-62
2021/12/25 12:03:44;;;;;;;9.78;5.15;;;;;;;6.40;59.09;100436.88;1639345;85;25909;-62
2021/12/25 12:06:13;;;;;;;9.00;5.42;;;;;;;6.42;59.69;100444.27;1685888;84;26711;-60
2021/12/25 12:09:00;;;;;;;7.78;5.25;;;;;;;6.53;59.66;100434.12;1674107;84;25833;-62
2021/12/25 12:11:36;;;;;;;12.15;5.95;;;;;;;6.70;58.80;100430.12;1667104;84;27689;-62
2021/12/25 12:14:25;;;;;;;9.90;5.72;;;;;;;6.68;57.97;100428.08;1644858;84;32609;-62
2021/12/25 12:17:24;;;;;;;11.37;5.33;;;;;;;6.62;57.32;100440.09;1657879;84;25879;-62
2021/12/25 12:19:54;;;;;;;9.30;5.95;;;;;;;6.45;58.50;100445.38;1636175;87;26167;-62
2021/12/25 12:22:41;;;;;;;9.70;6.53;;;;;;;6.37;58.49;100441.11;1628831;86;25498;-62
2021/12/25 12:28:07;;;;;;;10.10;6.10;;;;;;;6.28;59.08;100448.49;1632131;86;25805;-62
2021/12/25 12:30:48;;;;;;;9.43;5.78;;;;;;;6.26;58.94;100445.95;1660846;85;25983;-63
2021/12/25 12:33:21;;;;;;;12.60;6.28;;;;;;;6.21;59.10;100455.64;1666357;85;26799;-62
2021/12/25 12:35:53;;;;;;;8.35;5.70;;;;;;;6.13;59.24;100458.05;1663827;85;25761;-61
2021/12/25 12:38:42;;;;;;;9.48;5.33;;;;;;;6.04;59.21;100463.58;1665665;85;27585;-61
2021/12/25 12:41:31;;;;;;;9.90;6.08;;;;;;;5.92;59.50;100455.97;1662639;86;25892;-62
2021/12/25 12:44:16;;;;;;;10.58;6.45;;;;;;;5.74;59.95;100460.00;1646658;86;25834;-62
2021/12/25 12:46:54;;;;;;;10.13;6.33;;;;;;;5.60;60.31;100458.33;1639577;86;26120;-62
2021/12/25 12:49:32;;;;;;;10.85;6.53;;;;;;;5.43;60.68;100472.88;1649285;85;26134;-61
2021/12/25 12:52:22;;;;;;;10.15;5.60;;;;;;;5.32;61.14;100466.99;1669094;84;28373;-62
2021/12/25 12:55:02;;;;;;;10.35;5.97;;;;;;;5.16;61.34;100468.09;1643731;85;25798;-62
2021/12/25 12:57:34;;;;;;;9.33;5.33;;;;;;;5.09;61.58;100464.63;1619762;87;25833;-61